Time;durP1;ratioP1;P1;durP2;ratioP2;P2;SDS_P1;SDS_P2;PMS_P1;PMS_P2;Temp;Humidity;BMP_temperature;BMP_pressure;BME280_temperature;BME280_humidity;BME280_pressure;Samples;Min_cycle;Max_cycle;Signal;HPM_P1;HPM_P2
2021/03/04 00:00:51;;;;;;;9.30;4.63;;;21.20;37.70;;;;;;5114905;28;20498;-60
2021/03/04 00:03:16;;;;;;;9.02;4.70;;;21.20;37.70;;;;;;5114808;28;20423;-60
2021/03/04 00:05:42;;;;;;;8.18;4.32;;;21.20;37.70;;;;;;5114831;28;20372;-60
2021/03/04 00:08:07;;;;;;;10.57;4.85;;;21.20;37.70;;;;;;5114759;28;20062;-60
2021/03/04 00:10:34;;;;;;;10.65;4.60;;;21.10;37.70;;;;;;5114830;28;20020;-61
2021/03/04 00:13:00;;;;;;;9.52;4.38;;;21.10;37.70;;;;;;5115494;28;20020;-60
2021/03/04 00:15:28;;;;;;;7.95;4.20;;;21.10;37.70;;;;;;5115411;28;20024;-60
2021/03/04 00:17:54;;;;;;;8.93;4.95;;;21.10;37.70;;;;;;5114904;28;20099;-60
2021/03/04 00:20:30;;;;;;;8.98;4.78;;;21.10;37.70;;;;;;5115150;28;20047;-60
2021/03/04 00:22:56;;;;;;;8.32;4.15;;;21.10;37.80;;;;;;5115090;28;20047;-60
2021/03/04 00:25:25;;;;;;;7.50;4.28;;;21.10;37.80;;;;;;5114980;28;20024;-60
2021/03/04 00:27:51;;;;;;;8.30;4.63;;;21.10;37.70;;;;;;5114871;28;20027;-60
2021/03/04 00:30:18;;;;;;;8.48;4.25;;;21.10;37.80;;;;;;5114810;28;20364;-60
2021/03/04 00:32:44;;;;;;;10.32;4.88;;;21.10;37.70;;;;;;5115216;28;20030;-59
2021/03/04 00:35:10;;;;;;;8.57;4.97;;;21.10;37.80;;;;;;5115199;28;20106;-60
2021/03/04 00:37:36;;;;;;;8.15;4.50;;;21.10;37.80;;;;;;5114707;28;20023;-60
2021/03/04 00:40:10;;;;;;;9.20;4.60;;;21.00;37.70;;;;;;5114494;28;20356;-60
2021/03/04 00:42:37;;;;;;;9.20;4.65;;;21.10;37.80;;;;;;5113460;28;20465;-60
2021/03/04 00:45:15;;;;;;;8.45;4.78;;;21.00;37.70;;;;;;5114831;28;20019;-60
2021/03/04 00:47:40;;;;;;;8.00;4.32;;;21.10;37.70;;;;;;5114442;28;20031;-60
2021/03/04 00:50:07;;;;;;;8.20;4.80;;;21.00;37.80;;;;;;5114652;28;20030;-60
2021/03/04 00:52:33;;;;;;;9.88;4.57;;;21.00;37.80;;;;;;5114175;28;20034;-60
2021/03/04 00:54:58;;;;;;;9.43;4.97;;;21.00;37.80;;;;;;5114567;28;20019;-60
2021/03/04 00:57:24;;;;;;;9.00;4.90;;;21.00;37.70;;;;;;5114271;28;20048;-60
2021/03/04 00:59:50;;;;;;;8.02;4.53;;;21.00;37.80;;;;;;5114366;28;20020;-60
2021/03/04 01:02:16;;;;;;;9.27;4.93;;;21.00;37.70;;;;;;5114265;28;20039;-60
2021/03/04 01:04:41;;;;;;;7.25;4.28;;;21.00;37.70;;;;;;5114228;28;20022;-60
2021/03/04 01:07:07;;;;;;;9.20;5.13;;;21.00;37.80;;;;;;5113947;28;20368;-60
2021/03/04 01:09:32;;;;;;;8.75;4.93;;;21.00;37.70;;;;;;5114766;28;20034;-60
2021/03/04 01:11:58;;;;;;;8.27;4.85;;;21.00;37.80;;;;;;5114047;28;20020;-60
2021/03/04 01:14:24;;;;;;;7.97;4.30;;;21.00;37.80;;;;;;5114193;28;20024;-61
2021/03/04 01:16:50;;;;;;;8.55;4.63;;;21.00;37.80;;;;;;5114058;28;20020;-62
2021/03/04 01:19:15;;;;;;;7.38;4.25;;;20.90;37.80;;;;;;5114236;28;20044;-60
2021/03/04 01:21:41;;;;;;;8.45;4.80;;;20.90;37.80;;;;;;5113917;28;20111;-60
2021/03/04 01:24:07;;;;;;;8.10;4.65;;;20.90;37.80;;;;;;5114329;28;20023;-60
2021/03/04 01:26:35;;;;;;;8.63;5.03;;;20.90;37.80;;;;;;5114211;28;20020;-60
2021/03/04 01:29:00;;;;;;;9.60;5.03;;;20.90;37.80;;;;;;5114104;28;20019;-60
2021/03/04 01:31:26;;;;;;;8.63;5.00;;;20.90;37.80;;;;;;5114059;28;20020;-60
2021/03/04 01:33:51;;;;;;;8.65;4.28;;;20.90;37.80;;;;;;5113976;28;20020;-60
2021/03/04 01:36:17;;;;;;;9.45;4.60;;;20.90;37.90;;;;;;5114159;28;20027;-60
2021/03/04 01:38:42;;;;;;;9.20;4.90;;;20.80;37.90;;;;;;5113964;28;20383;-60
2021/03/04 01:41:08;;;;;;;8.10;4.15;;;20.90;37.80;;;;;;5113896;28;20495;-60
2021/03/04 01:43:34;;;;;;;8.10;5.05;;;20.80;37.80;;;;;;5113724;28;20039;-60
2021/03/04 01:45:59;;;;;;;7.95;4.53;;;20.80;37.80;;;;;;5113800;28;20150;-60
2021/03/04 01:48:25;;;;;;;8.30;4.18;;;20.80;37.80;;;;;;5113604;28;20160;-60
2021/03/04 01:50:51;;;;;;;9.30;5.05;;;20.80;37.80;;;;;;5114082;28;20020;-60
2021/03/04 01:53:17;;;;;;;8.90;4.97;;;20.80;37.80;;;;;;5113860;28;20012;-60
2021/03/04 01:55:43;;;;;;;8.40;4.35;;;20.80;37.90;;;;;;5115906;28;20080;-60
2021/03/04 01:58:09;;;;;;;9.50;4.90;;;20.80;37.90;;;;;;5117545;28;20030;-60
2021/03/04 02:03:57;;;;;;;8.05;4.22;;;20.80;37.80;;;;;;5116986;28;20514;-60
2021/03/04 02:06:30;;;;;;;8.15;4.45;;;20.70;37.80;;;;;;5117312;28;20024;-60
2021/03/04 02:09:00;;;;;;;7.88;4.60;;;20.80;37.90;;;;;;5117475;28;20032;-60
2021/03/04 02:11:35;;;;;;;8.88;4.97;;;20.80;37.80;;;;;;5117309;28;20020;-60
2021/03/04 02:14:11;;;;;;;7.85;4.70;;;20.70;37.90;;;;;;5117567;28;20028;-60
2021/03/04 02:16:48;;;;;;;8.32;5.07;;;20.70;37.80;;;;;;5117269;28;20031;-62
2021/03/04 02:19:32;;;;;;;9.35;5.32;;;20.70;37.90;;;;;;5117142;28;20069;-60
2021/03/04 02:22:31;;;;;;;7.93;4.45;;;20.70;37.90;;;;;;5117028;28;20031;-60
2021/03/04 02:25:22;;;;;;;7.35;4.60;;;20.70;37.80;;;;;;5117458;28;20028;-60
2021/03/04 02:27:50;;;;;;;9.50;4.88;;;20.70;37.90;;;;;;5122643;28;20023;-60
2021/03/04 02:30:22;;;;;;;8.80;4.80;;;20.70;37.90;;;;;;5122441;27;20051;-60
2021/03/04 02:32:51;;;;;;;8.80;4.93;;;20.70;37.90;;;;;;5117459;27;20016;-60
2021/03/04 02:35:29;;;;;;;8.60;5.07;;;20.60;37.90;;;;;;5117034;28;20554;-60
2021/03/04 02:37:58;;;;;;;9.35;4.90;;;20.70;37.90;;;;;;5116836;27;20034;-61
2021/03/04 02:40:26;;;;;;;7.60;4.32;;;20.70;37.90;;;;;;5116785;28;20051;-60
2021/03/04 02:42:53;;;;;;;8.43;4.50;;;20.60;37.90;;;;;;5116809;28;20083;-60
2021/03/04 02:45:22;;;;;;;9.95;4.93;;;20.60;37.90;;;;;;5116699;28;20053;-60
2021/03/04 02:47:48;;;;;;;8.48;5.00;;;20.60;37.90;;;;;;5116971;28;20031;-60
2021/03/04 02:50:14;;;;;;;8.55;4.68;;;20.60;37.90;;;;;;5116754;28;20057;-60
2021/03/04 02:52:40;;;;;;;8.55;4.68;;;20.60;37.90;;;;;;5116989;28;20146;-60
2021/03/04 02:55:07;;;;;;;9.93;4.25;;;20.60;37.90;;;;;;5117020;28;20027;-60
2021/03/04 02:57:34;;;;;;;8.63;4.47;;;20.60;37.90;;;;;;5116550;28;20134;-60
2021/03/04 03:00:01;;;;;;;10.85;4.63;;;20.60;37.90;;;;;;5116619;28;20024;-60
2021/03/04 03:02:28;;;;;;;8.02;4.47;;;20.60;37.90;;;;;;5115898;28;20424;-60
2021/03/04 03:04:56;;;;;;;9.43;4.85;;;20.60;37.90;;;;;;5116349;28;20054;-60
2021/03/04 03:07:23;;;;;;;8.77;4.88;;;20.60;37.90;;;;;;5116213;28;20103;-60
2021/03/04 03:09:48;;;;;;;9.82;5.13;;;20.60;37.90;;;;;;5116434;28;20046;-60
2021/03/04 03:12:16;;;;;;;7.55;4.45;;;20.50;37.90;;;;;;5116493;28;20020;-60
2021/03/04 03:14:42;;;;;;;7.82;4.18;;;20.60;37.90;;;;;;5116413;28;20185;-60
2021/03/04 03:17:08;;;;;;;8.18;4.88;;;20.50;37.90;;;;;;5116327;27;20040;-60
2021/03/04 03:19:35;;;;;;;9.38;4.80;;;20.50;37.90;;;;;;5120935;27;20024;-60
2021/03/04 03:22:00;;;;;;;9.85;4.45;;;20.50;37.90;;;;;;5116705;28;20034;-60
2021/03/04 03:24:26;;;;;;;8.10;4.60;;;20.50;37.90;;;;;;5115787;28;20031;-60
2021/03/04 03:26:52;;;;;;;8.00;4.65;;;20.50;37.90;;;;;;5116226;28;20107;-59
2021/03/04 03:29:18;;;;;;;8.43;4.75;;;20.50;37.90;;;;;;5115751;28;20040;-60
2021/03/04 03:31:49;;;;;;;8.10;4.25;;;20.50;37.90;;;;;;5116129;28;20031;-60
2021/03/04 03:34:15;;;;;;;9.15;4.75;;;20.50;37.90;;;;;;5116094;28;20404;-60
2021/03/04 03:36:41;;;;;;;8.32;4.93;;;20.50;37.90;;;;;;5115812;28;20111;-60
2021/03/04 03:39:08;;;;;;;9.02;4.95;;;20.50;37.90;;;;;;5116589;28;20035;-60
2021/03/04 03:41:38;;;;;;;7.88;4.30;;;20.50;37.90;;;;;;5115520;28;20482;-61
2021/03/04 03:44:04;;;;;;;8.07;4.53;;;20.50;37.90;;;;;;5115235;28;20039;-60
2021/03/04 03:46:32;;;;;;;9.55;5.20;;;20.50;37.90;;;;;;5115625;28;20023;-60
2021/03/04 03:49:05;;;;;;;8.43;4.65;;;20.50;37.90;;;;;;5115923;28;20028;-60
2021/03/04 03:51:33;;;;;;;7.82;4.65;;;20.50;37.90;;;;;;5115973;28;20023;-60
2021/03/04 03:54:01;;;;;;;8.43;4.85;;;20.50;37.90;;;;;;5115685;28;20473;-60
2021/03/04 03:56:28;;;;;;;7.90;4.35;;;20.50;37.90;;;;;;5115648;28;20028;-60
2021/03/04 03:58:55;;;;;;;8.57;5.15;;;20.50;37.90;;;;;;5115309;28;20471;-60
2021/03/04 04:01:21;;;;;;;9.25;5.22;;;20.40;37.90;;;;;;5115457;28;20031;-60
2021/03/04 04:03:46;;;;;;;9.95;4.70;;;20.50;37.90;;;;;;5115642;28;20035;-60
2021/03/04 04:06:12;;;;;;;7.70;4.38;;;20.50;37.90;;;;;;5115610;28;20047;-60
2021/03/04 04:08:38;;;;;;;8.68;5.05;;;20.40;37.90;;;;;;5115066;28;20116;-60
2021/03/04 04:11:04;;;;;;;9.20;5.65;;;20.40;37.90;;;;;;5115449;28;20016;-60
2021/03/04 04:13:29;;;;;;;8.68;4.95;;;20.40;37.90;;;;;;5115249;28;20099;-60
2021/03/04 04:15:55;;;;;;;9.32;6.05;;;20.40;37.90;;;;;;5114869;28;20051;-60
2021/03/04 04:18:20;;;;;;;10.00;5.35;;;20.40;37.90;;;;;;5114677;28;20403;-60
2021/03/04 04:20:47;;;;;;;8.63;4.93;;;20.40;37.90;;;;;;5115245;28;20088;-60
2021/03/04 04:23:13;;;;;;;8.73;4.82;;;20.40;37.90;;;;;;5114673;28;20442;-60
2021/03/04 04:25:47;;;;;;;10.20;5.15;;;20.40;37.90;;;;;;5114855;28;20360;-60
2021/03/04 04:28:13;;;;;;;10.27;4.88;;;20.40;37.90;;;;;;5114600;28;20376;-60
2021/03/04 04:30:38;;;;;;;7.68;4.38;;;20.40;37.90;;;;;;5114542;28;20077;-60
2021/03/04 04:33:04;;;;;;;9.57;5.72;;;20.40;37.90;;;;;;5114897;28;20036;-60
2021/03/04 04:35:29;;;;;;;8.57;4.93;;;20.40;37.90;;;;;;5114867;28;20015;-60
2021/03/04 04:37:55;;;;;;;8.52;4.93;;;20.40;37.90;;;;;;5115011;28;20024;-60
2021/03/04 04:40:21;;;;;;;9.95;5.38;;;20.40;37.90;;;;;;5114631;28;20016;-60
2021/03/04 04:42:46;;;;;;;8.68;4.93;;;20.30;37.90;;;;;;5114593;28;20032;-60
2021/03/04 04:45:12;;;;;;;8.50;5.18;;;20.40;37.90;;;;;;5115093;28;20026;-60
2021/03/04 04:47:37;;;;;;;9.35;5.57;;;20.30;37.90;;;;;;5114835;28;20020;-61
2021/03/04 04:50:04;;;;;;;10.20;5.57;;;20.30;37.90;;;;;;5114507;28;20093;-60
2021/03/04 04:52:30;;;;;;;9.75;4.93;;;20.30;37.90;;;;;;5115085;28;20020;-60
2021/03/04 04:54:55;;;;;;;8.73;5.45;;;20.30;37.90;;;;;;5114516;28;20031;-60
2021/03/04 04:57:22;;;;;;;9.02;5.30;;;20.30;37.90;;;;;;5114826;28;20098;-60
2021/03/04 04:59:48;;;;;;;7.70;5.05;;;20.30;37.90;;;;;;5114753;28;20140;-60
2021/03/04 05:02:14;;;;;;;9.20;5.43;;;20.30;37.90;;;;;;5114383;28;20317;-60
2021/03/04 05:04:39;;;;;;;9.13;5.00;;;20.30;37.90;;;;;;5114813;28;20028;-60
2021/03/04 05:07:05;;;;;;;10.10;5.60;;;20.30;37.90;;;;;;5114388;28;20020;-59
2021/03/04 05:09:30;;;;;;;9.43;5.55;;;20.30;37.90;;;;;;5114210;28;20062;-60
2021/03/04 05:11:56;;;;;;;8.77;5.43;;;20.30;37.90;;;;;;5114038;28;20356;-60
2021/03/04 05:14:21;;;;;;;8.88;5.15;;;20.30;37.80;;;;;;5114210;28;20439;-60
2021/03/04 05:16:47;;;;;;;9.52;5.78;;;20.30;37.80;;;;;;5112859;28;20020;-60
2021/03/04 05:19:12;;;;;;;8.68;5.18;;;20.30;37.80;;;;;;5114893;28;20036;-60
2021/03/04 05:21:38;;;;;;;8.60;5.57;;;20.40;37.70;;;;;;5114087;28;20030;-60
2021/03/04 05:24:04;;;;;;;9.85;6.22;;;20.40;37.70;;;;;;5113727;28;20479;-60
2021/03/04 05:26:29;;;;;;;9.48;6.05;;;20.40;37.60;;;;;;5114046;28;20032;-60
2021/03/04 05:28:55;;;;;;;8.52;5.45;;;20.50;37.60;;;;;;5114253;28;20308;-60
2021/03/04 05:31:20;;;;;;;9.05;5.70;;;20.50;37.50;;;;;;5117030;28;20019;-60
2021/03/04 05:33:46;;;;;;;9.85;5.57;;;20.50;37.50;;;;;;5121348;28;20102;-61
2021/03/04 05:36:12;;;;;;;9.00;5.57;;;20.50;37.40;;;;;;5125504;28;20035;-60
2021/03/04 05:38:37;;;;;;;9.23;5.50;;;20.60;37.50;;;;;;5117644;28;20027;-60
2021/03/04 05:41:03;;;;;;;9.80;5.60;;;20.60;37.40;;;;;;5118725;28;20020;-60
2021/03/04 05:43:29;;;;;;;9.65;5.85;;;20.60;37.30;;;;;;5118434;27;20486;-60
2021/03/04 05:45:56;;;;;;;8.70;5.30;;;20.60;37.40;;;;;;5118500;28;20027;-60
2021/03/04 05:48:22;;;;;;;8.40;5.18;;;20.70;37.30;;;;;;5118253;28;20024;-60
2021/03/04 05:50:52;;;;;;;10.55;5.45;;;20.70;37.30;;;;;;5118150;28;20055;-60
2021/03/04 05:53:22;;;;;;;9.95;5.43;;;20.70;37.20;;;;;;5118149;28;20031;-61
2021/03/04 05:55:48;;;;;;;8.95;5.30;;;20.70;37.20;;;;;;5118413;28;20035;-60
2021/03/04 05:58:14;;;;;;;9.38;5.80;;;20.80;37.20;;;;;;5118443;28;20048;-60
2021/03/04 06:00:41;;;;;;;9.75;5.80;;;20.80;37.20;;;;;;5119285;28;20020;-60
2021/03/04 06:03:07;;;;;;;9.77;5.60;;;20.80;37.10;;;;;;5118318;28;20483;-60
2021/03/04 06:05:33;;;;;;;10.27;6.18;;;20.80;37.10;;;;;;5118759;28;20069;-60
2021/03/04 06:08:02;;;;;;;9.88;5.30;;;20.80;37.20;;;;;;5118382;28;20409;-60
2021/03/04 06:10:28;;;;;;;9.52;5.75;;;20.80;37.10;;;;;;5118224;28;20489;-60
2021/03/04 06:12:54;;;;;;;10.52;5.93;;;20.80;37.10;;;;;;5123764;28;20023;-60
2021/03/04 06:15:22;;;;;;;10.45;5.90;;;20.80;37.10;;;;;;5126676;28;20020;-60
2021/03/04 06:17:57;;;;;;;12.57;6.80;;;20.90;37.10;;;;;;5125638;27;20056;-60
2021/03/04 06:20:23;;;;;;;10.88;6.78;;;20.90;37.10;;;;;;5125923;28;20016;-60
2021/03/04 06:22:51;;;;;;;9.00;5.93;;;20.90;37.00;;;;;;5126635;27;20035;-60
2021/03/04 06:25:17;;;;;;;10.48;6.15;;;21.00;37.00;;;;;;5127510;28;20028;-60
2021/03/04 06:27:46;;;;;;;9.85;5.45;;;20.90;37.00;;;;;;5127172;28;20047;-60
2021/03/04 06:30:17;;;;;;;10.13;6.10;;;21.00;36.90;;;;;;5126268;28;20015;-60
2021/03/04 06:33:00;;;;;;;9.52;6.13;;;21.00;37.00;;;;;;5126492;28;20023;-60
2021/03/04 06:35:31;;;;;;;9.85;6.15;;;21.00;36.90;;;;;;5125019;28;20475;-61
2021/03/04 06:37:57;;;;;;;9.55;6.13;;;21.00;37.00;;;;;;5122615;28;20024;-60
2021/03/04 06:40:24;;;;;;;11.05;6.60;;;21.00;36.90;;;;;;5121357;28;20229;-60
2021/03/04 06:42:50;;;;;;;9.68;5.78;;;21.00;36.90;;;;;;5123037;28;20042;-61
2021/03/04 06:45:33;;;;;;;10.23;5.90;;;21.00;36.90;;;;;;5123176;28;20093;-60
2021/03/04 06:48:24;;;;;;;11.52;6.68;;;21.00;36.90;;;;;;5121504;28;20061;-60
2021/03/04 06:50:58;;;;;;;10.25;6.78;;;21.00;37.00;;;;;;5123784;28;20494;-60
2021/03/04 06:53:25;;;;;;;10.52;6.03;;;21.00;36.80;;;;;;5122083;28;20034;-61
2021/03/04 06:55:54;;;;;;;10.43;6.20;;;21.00;36.80;;;;;;5122268;28;20357;-60
2021/03/04 06:58:24;;;;;;;10.52;6.38;;;21.00;36.80;;;;;;5116770;28;20067;-60
2021/03/04 07:01:08;;;;;;;10.00;5.63;;;21.10;36.80;;;;;;5117547;28;20059;-60
2021/03/04 07:03:34;;;;;;;11.70;6.93;;;21.10;36.80;;;;;;5117643;27;20067;-60
2021/03/04 07:06:05;;;;;;;10.27;6.25;;;21.10;36.70;;;;;;5102891;28;20027;-61
2021/03/04 07:08:34;;;;;;;11.20;6.80;;;21.10;36.80;;;;;;5088622;28;20046;-59
2021/03/04 07:11:02;;;;;;;10.68;6.43;;;21.10;36.90;;;;;;5092405;28;20050;-60
2021/03/04 07:13:30;;;;;;;12.93;6.80;;;21.20;36.80;;;;;;5092198;28;20016;-61
2021/03/04 07:15:57;;;;;;;11.18;6.38;;;21.20;36.70;;;;;;5090310;28;20386;-61
2021/03/04 07:18:24;;;;;;;11.68;6.68;;;21.20;36.70;;;;;;5095113;28;20051;-61
2021/03/04 07:20:50;;;;;;;10.20;5.93;;;21.20;36.80;;;;;;5101766;28;20027;-60
2021/03/04 07:23:16;;;;;;;10.63;6.70;;;21.20;36.90;;;;;;5098759;28;20127;-60
2021/03/04 07:25:42;;;;;;;12.48;7.00;;;21.20;36.80;;;;;;5096881;28;20044;-60
2021/03/04 07:28:10;;;;;;;10.93;6.25;;;21.20;36.80;;;;;;5104064;28;20024;-61
2021/03/04 07:30:37;;;;;;;10.80;6.32;;;21.20;36.80;;;;;;5098610;28;20024;-60
2021/03/04 07:33:03;;;;;;;11.38;6.30;;;21.20;36.80;;;;;;5098748;28;20028;-60
2021/03/04 07:35:29;;;;;;;11.25;5.70;;;21.20;36.80;;;;;;5096326;28;20132;-60
2021/03/04 07:37:55;;;;;;;10.98;6.32;;;21.20;36.80;;;;;;5096419;28;20033;-61
2021/03/04 07:40:20;;;;;;;10.38;5.88;;;21.30;36.80;;;;;;5096813;28;20392;-61
2021/03/04 07:42:46;;;;;;;10.23;6.07;;;21.30;36.80;;;;;;5096799;28;20062;-60
2021/03/04 07:45:14;;;;;;;10.23;6.10;;;21.30;36.80;;;;;;5097155;28;20099;-60
2021/03/04 07:47:39;;;;;;;10.43;6.05;;;21.30;36.80;;;;;;5095631;28;20035;-60
2021/03/04 07:50:25;;;;;;;13.15;7.05;;;21.30;36.80;;;;;;5094995;28;20372;-60
2021/03/04 07:53:03;;;;;;;9.52;6.05;;;21.30;36.80;;;;;;5094245;28;20036;-60
2021/03/04 07:55:38;;;;;;;11.82;6.47;;;21.30;36.80;;;;;;5095113;28;20035;-60
2021/03/04 07:58:15;;;;;;;10.98;6.45;;;21.30;36.70;;;;;;5095924;28;20460;-60
2021/03/04 08:00:41;;;;;;;9.80;6.20;;;21.30;36.70;;;;;;5094246;28;20024;-60
2021/03/04 08:03:06;;;;;;;10.70;5.85;;;21.30;36.70;;;;;;5079524;28;20197;-60
2021/03/04 08:05:35;;;;;;;11.07;6.00;;;21.40;36.90;;;;;;5087026;28;20020;-60
2021/03/04 08:08:36;;;;;;;11.48;5.95;;;21.30;36.90;;;;;;5080620;28;20027;-60
2021/03/04 08:11:01;;;;;;;9.43;6.13;;;21.40;36.70;;;;;;5067292;28;20040;-60
2021/03/04 08:13:31;;;;;;;8.80;5.35;;;21.40;36.70;;;;;;5093156;28;20035;-60
2021/03/04 08:15:57;;;;;;;10.00;5.18;;;21.40;36.70;;;;;;5075020;28;20116;-59
2021/03/04 08:18:24;;;;;;;10.27;5.97;;;21.40;36.80;;;;;;5082828;28;20076;-60
2021/03/04 08:20:51;;;;;;;11.25;5.60;;;21.50;36.70;;;;;;5083412;28;20119;-61
2021/03/04 08:23:18;;;;;;;8.32;5.13;;;21.40;36.70;;;;;;5085308;28;20043;-60
2021/03/04 08:25:45;;;;;;;10.68;5.63;;;21.50;36.80;;;;;;5092526;28;20034;-60
2021/03/04 08:28:23;;;;;;;8.68;5.25;;;21.40;36.70;;;;;;5086520;28;20094;-59
2021/03/04 08:30:50;;;;;;;8.70;5.20;;;21.40;36.70;;;;;;5083317;28;20038;-59
2021/03/04 08:33:15;;;;;;;11.15;5.30;;;21.50;36.70;;;;;;5091425;28;20379;-59
2021/03/04 08:35:46;;;;;;;9.82;5.60;;;21.50;36.70;;;;;;5087846;28;20052;-59
2021/03/04 08:38:19;;;;;;;9.57;5.22;;;21.50;37.00;;;;;;5093954;28;20441;-59
2021/03/04 08:40:53;;;;;;;9.13;4.90;;;21.50;36.70;;;;;;5084903;28;20115;-59
2021/03/04 08:43:27;;;;;;;9.45;4.90;;;21.50;36.80;;;;;;5081560;28;20418;-59
2021/03/04 08:45:57;;;;;;;9.13;5.30;;;21.50;36.80;;;;;;5087083;28;20038;-59
2021/03/04 08:48:23;;;;;;;8.73;4.40;;;21.50;36.80;;;;;;5086038;28;20040;-60
2021/03/04 08:50:51;;;;;;;8.13;4.70;;;21.50;36.80;;;;;;5100824;28;20028;-61
2021/03/04 08:53:21;;;;;;;8.63;4.72;;;21.50;37.00;;;;;;5085454;28;20036;-60
2021/03/04 08:55:47;;;;;;;8.30;4.78;;;21.50;37.10;;;;;;5084743;28;20036;-60
2021/03/04 08:58:13;;;;;;;8.45;5.03;;;21.50;37.10;;;;;;5087499;28;20036;-60
2021/03/04 09:00:39;;;;;;;8.15;3.92;;;21.50;36.90;;;;;;5095983;28;21341;-60
2021/03/04 09:03:09;;;;;;;9.30;4.28;;;21.50;36.80;;;;;;5092271;28;20427;-60
2021/03/04 09:05:35;;;;;;;7.95;4.80;;;21.50;36.80;;;;;;5090802;28;20119;-60
2021/03/04 09:08:07;;;;;;;8.48;4.80;;;21.50;36.80;;;;;;5081705;28;20218;-60
2021/03/04 09:10:44;;;;;;;9.27;4.95;;;21.50;36.90;;;;;;5085258;28;20025;-60
2021/03/04 09:13:10;;;;;;;7.47;4.60;;;21.50;36.80;;;;;;5096099;28;20035;-60
2021/03/04 09:15:36;;;;;;;8.45;4.45;;;21.50;36.80;;;;;;5099812;28;20028;-61
2021/03/04 09:18:06;;;;;;;7.40;4.47;;;21.50;36.80;;;;;;5100665;28;20488;-60
2021/03/04 09:20:32;;;;;;;7.78;4.57;;;21.50;36.90;;;;;;5093024;28;20053;-60
2021/03/04 09:22:58;;;;;;;8.55;4.38;;;21.50;36.70;;;;;;5087008;28;20020;-60
2021/03/04 09:25:24;;;;;;;8.50;4.55;;;21.60;36.80;;;;;;5104173;28;20105;-61
2021/03/04 09:27:49;;;;;;;7.82;3.90;;;21.60;36.80;;;;;;5100352;28;20028;-61
2021/03/04 09:30:24;;;;;;;6.95;3.97;;;21.60;36.90;;;;;;5104264;28;20085;-60
2021/03/04 09:32:50;;;;;;;7.45;4.03;;;21.60;36.80;;;;;;5093808;28;20086;-61
2021/03/04 09:35:16;;;;;;;6.53;4.03;;;21.60;36.70;;;;;;5090783;28;20024;-60
2021/03/04 09:37:41;;;;;;;7.82;4.30;;;21.60;36.80;;;;;;5075562;28;20384;-61
2021/03/04 09:40:07;;;;;;;12.20;3.92;;;21.60;36.70;;;;;;5089609;28;20036;-61
2021/03/04 09:42:35;;;;;;;6.45;3.45;;;21.60;36.80;;;;;;5076184;28;20029;-61
2021/03/04 09:45:07;;;;;;;8.88;4.00;;;21.60;36.90;;;;;;5079872;28;20025;-61
2021/03/04 09:47:34;;;;;;;8.10;4.03;;;21.50;36.80;;;;;;5090248;28;20110;-61
2021/03/04 09:50:02;;;;;;;7.78;4.03;;;21.60;36.80;;;;;;5079077;28;20033;-61
2021/03/04 09:52:32;;;;;;;7.00;4.18;;;21.50;36.80;;;;;;5075373;28;20488;-61
2021/03/04 09:55:15;;;;;;;6.82;3.85;;;21.60;36.90;;;;;;5081932;28;20028;-60
2021/03/04 09:57:45;;;;;;;6.95;3.60;;;21.60;36.90;;;;;;5103211;28;20031;-60
2021/03/04 10:00:15;;;;;;;7.75;4.22;;;21.60;36.80;;;;;;5081263;28;20040;-60
2021/03/04 10:02:40;;;;;;;9.20;3.83;;;21.60;36.80;;;;;;5092779;28;20049;-60
2021/03/04 10:05:12;;;;;;;7.03;3.92;;;21.60;36.80;;;;;;5084246;28;20412;-60
2021/03/04 10:07:37;;;;;;;6.88;3.47;;;21.60;36.80;;;;;;5092867;28;20399;-60
2021/03/04 10:10:03;;;;;;;7.15;3.85;;;21.60;36.80;;;;;;5093020;28;20032;-60
2021/03/04 10:12:29;;;;;;;6.47;3.70;;;21.60;36.80;;;;;;5083881;28;20047;-60
2021/03/04 10:14:55;;;;;;;6.95;3.50;;;21.70;36.90;;;;;;5084632;28;20352;-60
2021/03/04 10:17:21;;;;;;;7.78;3.53;;;21.60;36.80;;;;;;5088279;28;20412;-60
2021/03/04 10:19:47;;;;;;;6.85;3.80;;;21.60;36.80;;;;;;5083539;28;20039;-61
2021/03/04 10:22:12;;;;;;;5.60;3.22;;;21.70;36.90;;;;;;5092892;28;20163;-59
2021/03/04 10:24:38;;;;;;;6.68;3.40;;;21.60;36.90;;;;;;5089684;28;20062;-60
2021/03/04 10:27:05;;;;;;;7.22;3.40;;;21.70;36.90;;;;;;5094945;28;20028;-61
2021/03/04 10:29:32;;;;;;;6.85;3.78;;;21.60;36.90;;;;;;5105903;28;20028;-60
2021/03/04 10:31:58;;;;;;;5.72;3.08;;;21.70;36.80;;;;;;5075694;28;20388;-60
2021/03/04 10:34:25;;;;;;;6.95;3.30;;;21.70;36.80;;;;;;5077294;28;20020;-60
2021/03/04 10:36:51;;;;;;;6.70;3.53;;;21.70;36.80;;;;;;5086650;28;20032;-60
2021/03/04 10:39:18;;;;;;;6.45;3.50;;;21.70;36.80;;;;;;5076517;28;20166;-60
2021/03/04 10:41:44;;;;;;;6.70;3.25;;;21.70;36.80;;;;;;5098802;28;20027;-60
2021/03/04 10:44:11;;;;;;;6.45;3.03;;;21.70;36.80;;;;;;5095257;28;20503;-60
2021/03/04 10:46:38;;;;;;;7.30;3.70;;;21.70;36.80;;;;;;5085044;28;20047;-60
2021/03/04 10:49:04;;;;;;;7.63;3.63;;;21.70;36.80;;;;;;5081888;28;20051;-60
2021/03/04 10:51:30;;;;;;;7.00;3.25;;;21.70;36.80;;;;;;5084353;28;20029;-60
2021/03/04 10:53:56;;;;;;;5.53;3.22;;;21.70;36.80;;;;;;5087328;28;20024;-60
2021/03/04 10:56:22;;;;;;;5.90;3.20;;;21.70;36.80;;;;;;5079074;28;20562;-60
2021/03/04 10:58:47;;;;;;;7.20;3.95;;;21.70;36.70;;;;;;5085761;28;20032;-61
2021/03/04 11:01:13;;;;;;;5.93;3.10;;;21.70;36.70;;;;;;5079251;28;20025;-61
2021/03/04 11:03:38;;;;;;;6.20;3.20;;;21.80;36.70;;;;;;5076537;28;20083;-60
2021/03/04 11:06:04;;;;;;;5.78;3.38;;;21.70;36.70;;;;;;5088966;28;20016;-60
2021/03/04 11:08:29;;;;;;;5.88;3.03;;;21.80;36.80;;;;;;5094001;28;20033;-60
2021/03/04 11:10:55;;;;;;;6.55;3.47;;;21.70;36.70;;;;;;5095238;28;20059;-60
2021/03/04 11:13:21;;;;;;;6.10;3.10;;;21.70;36.70;;;;;;5091734;28;20123;-60
2021/03/04 11:15:46;;;;;;;5.13;2.60;;;21.80;36.60;;;;;;5099774;28;20021;-60
2021/03/04 11:18:12;;;;;;;5.05;2.90;;;21.80;36.60;;;;;;5098371;28;20073;-61
2021/03/04 11:20:37;;;;;;;6.65;3.15;;;21.80;36.60;;;;;;5094971;28;20047;-59
2021/03/04 11:23:03;;;;;;;5.82;3.20;;;21.80;36.60;;;;;;5090375;28;20034;-60
2021/03/04 11:25:29;;;;;;;5.53;2.75;;;21.80;36.60;;;;;;5080023;28;20107;-59
2021/03/04 11:27:54;;;;;;;5.50;2.90;;;21.80;36.60;;;;;;5080758;28;20032;-61
2021/03/04 11:30:20;;;;;;;6.43;3.20;;;21.80;36.70;;;;;;5091992;28;20035;-60
2021/03/04 11:32:46;;;;;;;5.20;2.97;;;21.80;36.70;;;;;;5077409;28;20508;-60
2021/03/04 11:35:12;;;;;;;5.32;2.80;;;21.80;36.60;;;;;;5087347;28;20044;-60
2021/03/04 11:37:37;;;;;;;6.20;3.08;;;21.80;36.70;;;;;;5099786;28;20032;-61
2021/03/04 11:40:04;;;;;;;5.95;2.80;;;21.80;36.70;;;;;;5074602;28;20027;-60
2021/03/04 11:42:30;;;;;;;6.38;2.63;;;21.80;36.70;;;;;;5074448;28;20032;-61
2021/03/04 11:44:55;;;;;;;5.60;2.55;;;21.80;36.70;;;;;;5074426;28;20491;-60
2021/03/04 11:47:21;;;;;;;7.20;2.90;;;21.80;36.70;;;;;;5086433;28;20028;-60
2021/03/04 11:49:47;;;;;;;5.82;2.72;;;21.80;36.70;;;;;;5089141;28;20028;-60
2021/03/04 11:52:12;;;;;;;6.35;3.00;;;21.80;36.60;;;;;;5079381;28;20020;-61
2021/03/04 11:54:38;;;;;;;5.68;2.60;;;21.80;36.70;;;;;;5078341;28;20024;-60
2021/03/04 11:57:04;;;;;;;5.05;2.67;;;21.80;36.70;;;;;;5082469;28;20043;-60
2021/03/04 11:59:29;;;;;;;5.85;2.58;;;21.80;36.60;;;;;;5074029;28;20024;-60
2021/03/04 12:01:55;;;;;;;6.30;2.65;;;21.80;36.60;;;;;;5084018;28;20028;-60
2021/03/04 12:04:20;;;;;;;6.13;3.13;;;21.80;36.50;;;;;;5085708;28;20032;-60
2021/03/04 12:06:46;;;;;;;5.75;3.00;;;21.80;36.60;;;;;;5091964;28;20471;-60
2021/03/04 12:09:11;;;;;;;6.72;3.38;;;21.80;36.60;;;;;;5078549;28;20390;-60
2021/03/04 12:11:37;;;;;;;6.28;2.92;;;21.80;36.60;;;;;;5073256;28;20028;-60
2021/03/04 12:14:02;;;;;;;6.28;2.60;;;21.80;36.70;;;;;;5071926;28;20408;-60
2021/03/04 12:16:28;;;;;;;6.55;2.67;;;21.80;36.80;;;;;;5075370;28;20032;-60
2021/03/04 12:18:53;;;;;;;6.40;3.25;;;21.80;36.70;;;;;;5094059;28;20127;-60
2021/03/04 12:21:19;;;;;;;6.32;2.80;;;21.80;36.60;;;;;;5094229;28;20032;-60
2021/03/04 12:23:45;;;;;;;5.80;2.92;;;21.80;36.60;;;;;;5094212;28;20050;-61
2021/03/04 12:26:11;;;;;;;8.18;3.20;;;21.80;36.60;;;;;;5094192;28;20048;-60
2021/03/04 12:28:37;;;;;;;6.22;2.70;;;21.80;36.60;;;;;;5074613;28;20453;-60
2021/03/04 12:31:02;;;;;;;5.88;2.72;;;21.80;36.60;;;;;;5073812;28;20081;-60
2021/03/04 12:33:28;;;;;;;5.18;2.60;;;21.80;36.60;;;;;;5073700;28;20021;-60
2021/03/04 12:35:53;;;;;;;7.03;2.78;;;21.80;36.60;;;;;;5074119;28;20020;-60
2021/03/04 12:38:19;;;;;;;5.38;2.70;;;21.70;36.70;;;;;;5081269;28;20021;-60
2021/03/04 12:40:44;;;;;;;9.35;2.97;;;21.80;36.60;;;;;;5085451;28;20032;-60
2021/03/04 12:43:10;;;;;;;6.43;3.17;;;21.80;36.60;;;;;;5079590;28;20040;-60
2021/03/04 12:45:36;;;;;;;4.80;2.67;;;21.80;36.60;;;;;;5080461;28;20039;-60
2021/03/04 12:48:03;;;;;;;5.68;3.10;;;21.80;36.60;;;;;;5087145;28;20484;-61
2021/03/04 12:50:28;;;;;;;5.93;3.00;;;21.80;36.50;;;;;;5091926;28;20082;-60